sensor_id;sensor_type;location;lat;lon;timestamp;P1;durP1;ratioP1;P2;durP2;ratioP2
56481;SDS011;42384;45.186;19.958;2022-07-17T00:02:43;6.22;;;3.03;;
56481;SDS011;42384;45.186;19.958;2022-07-17T00:05:09;5.65;;;2.70;;
56481;SDS011;42384;45.186;19.958;2022-07-17T00:07:35;7.97;;;3.00;;
56481;SDS011;42384;45.186;19.958;2022-07-17T00:10:02;6.55;;;3.15;;
56481;SDS011;42384;45.186;19.958;2022-07-17T00:14:54;7.45;;;2.75;;
56481;SDS011;42384;45.186;19.958;2022-07-17T00:17:20;8.52;;;3.08;;
56481;SDS011;42384;45.186;19.958;2022-07-17T00:19:46;7.28;;;3.10;;
56481;SDS011;42384;45.186;19.958;2022-07-17T00:22:12;5.88;;;2.80;;
56481;SDS011;42384;45.186;19.958;2022-07-17T00:24:39;5.90;;;2.80;;
56481;SDS011;42384;45.186;19.958;2022-07-17T00:27:05;9.15;;;2.90;;
56481;SDS011;42384;45.186;19.958;2022-07-17T00:29:31;8.13;;;3.00;;
56481;SDS011;42384;45.186;19.958;2022-07-17T00:31:57;4.63;;;3.08;;
56481;SDS011;42384;45.186;19.958;2022-07-17T00:34:23;5.82;;;3.45;;
56481;SDS011;42384;45.186;19.958;2022-07-17T00:36:50;7.50;;;3.10;;
56481;SDS011;42384;45.186;19.958;2022-07-17T00:39:16;3.92;;;3.15;;
56481;SDS011;42384;45.186;19.958;2022-07-17T00:41:45;6.43;;;2.67;;
56481;SDS011;42384;45.186;19.958;2022-07-17T00:44:11;5.85;;;3.38;;
56481;SDS011;42384;45.186;19.958;2022-07-17T00:46:38;7.70;;;3.45;;
56481;SDS011;42384;45.186;19.958;2022-07-17T00:49:04;6.10;;;3.08;;
56481;SDS011;42384;45.186;19.958;2022-07-17T00:51:31;6.78;;;3.53;;
56481;SDS011;42384;45.186;19.958;2022-07-17T00:56:24;5.75;;;2.90;;
56481;SDS011;42384;45.186;19.958;2022-07-17T00:58:50;7.63;;;3.08;;
56481;SDS011;42384;45.186;19.958;2022-07-17T01:01:16;5.57;;;3.00;;
56481;SDS011;42384;45.186;19.958;2022-07-17T01:03:43;6.90;;;3.30;;
56481;SDS011;42384;45.186;19.958;2022-07-17T01:06:09;6.65;;;3.42;;
56481;SDS011;42384;45.186;19.958;2022-07-17T01:08:35;7.72;;;3.50;;
56481;SDS011;42384;45.186;19.958;2022-07-17T01:11:02;8.25;;;3.47;;
56481;SDS011;42384;45.186;19.958;2022-07-17T01:13:29;4.70;;;3.13;;
56481;SDS011;42384;45.186;19.958;2022-07-17T01:15:56;7.38;;;3.05;;
56481;SDS011;42384;45.186;19.958;2022-07-17T01:18:22;5.95;;;3.20;;
56481;SDS011;42384;45.186;19.958;2022-07-17T01:20:49;6.00;;;2.88;;
56481;SDS011;42384;45.186;19.958;2022-07-17T01:25:41;5.80;;;2.60;;
56481;SDS011;42384;45.186;19.958;2022-07-17T01:28:08;6.38;;;3.17;;
56481;SDS011;42384;45.186;19.958;2022-07-17T01:30:34;6.07;;;3.28;;
56481;SDS011;42384;45.186;19.958;2022-07-17T01:35:27;4.38;;;3.05;;
56481;SDS011;42384;45.186;19.958;2022-07-17T01:37:53;5.20;;;2.83;;
56481;SDS011;42384;45.186;19.958;2022-07-17T01:40:20;9.32;;;3.45;;
56481;SDS011;42384;45.186;19.958;2022-07-17T01:42:47;6.22;;;2.72;;
56481;SDS011;42384;45.186;19.958;2022-07-17T01:45:14;8.20;;;2.83;;
56481;SDS011;42384;45.186;19.958;2022-07-17T01:50:06;3.80;;;2.67;;
56481;SDS011;42384;45.186;19.958;2022-07-17T01:52:35;4.35;;;2.70;;
56481;SDS011;42384;45.186;19.958;2022-07-17T01:55:02;7.32;;;2.67;;
56481;SDS011;42384;45.186;19.958;2022-07-17T01:57:28;9.10;;;3.00;;
56481;SDS011;42384;45.186;19.958;2022-07-17T01:59:54;6.20;;;2.60;;
56481;SDS011;42384;45.186;19.958;2022-07-17T02:02:21;5.25;;;2.97;;
56481;SDS011;42384;45.186;19.958;2022-07-17T02:04:47;6.05;;;2.92;;
56481;SDS011;42384;45.186;19.958;2022-07-17T02:07:13;10.02;;;2.85;;
56481;SDS011;42384;45.186;19.958;2022-07-17T02:09:39;8.32;;;2.92;;
56481;SDS011;42384;45.186;19.958;2022-07-17T02:12:05;4.72;;;2.63;;
56481;SDS011;42384;45.186;19.958;2022-07-17T02:14:32;5.00;;;2.22;;
56481;SDS011;42384;45.186;19.958;2022-07-17T02:16:58;5.85;;;2.28;;
56481;SDS011;42384;45.186;19.958;2022-07-17T02:19:24;10.40;;;3.25;;
56481;SDS011;42384;45.186;19.958;2022-07-17T02:21:51;4.75;;;2.40;;
56481;SDS011;42384;45.186;19.958;2022-07-17T02:24:18;5.85;;;2.75;;
56481;SDS011;42384;45.186;19.958;2022-07-17T02:26:44;5.03;;;2.47;;
56481;SDS011;42384;45.186;19.958;2022-07-17T02:29:10;5.55;;;2.45;;
56481;SDS011;42384;45.186;19.958;2022-07-17T02:31:36;4.88;;;2.35;;
56481;SDS011;42384;45.186;19.958;2022-07-17T02:34:02;3.90;;;2.47;;
56481;SDS011;42384;45.186;19.958;2022-07-17T02:36:28;5.72;;;2.63;;
56481;SDS011;42384;45.186;19.958;2022-07-17T02:38:55;4.40;;;2.40;;
56481;SDS011;42384;45.186;19.958;2022-07-17T02:41:21;5.05;;;2.85;;
56481;SDS011;42384;45.186;19.958;2022-07-17T02:43:48;6.97;;;2.75;;
56481;SDS011;42384;45.186;19.958;2022-07-17T02:46:14;5.90;;;2.22;;
56481;SDS011;42384;45.186;19.958;2022-07-17T02:48:41;5.72;;;2.25;;
56481;SDS011;42384;45.186;19.958;2022-07-17T02:51:07;6.38;;;2.47;;
56481;SDS011;42384;45.186;19.958;2022-07-17T02:53:33;8.38;;;2.45;;
56481;SDS011;42384;45.186;19.958;2022-07-17T02:55:59;7.88;;;2.28;;
56481;SDS011;42384;45.186;19.958;2022-07-17T02:58:26;6.38;;;2.60;;
56481;SDS011;42384;45.186;19.958;2022-07-17T03:00:52;3.55;;;2.40;;
56481;SDS011;42384;45.186;19.958;2022-07-17T03:03:18;6.78;;;2.53;;
56481;SDS011;42384;45.186;19.958;2022-07-17T03:05:46;7.18;;;2.13;;
56481;SDS011;42384;45.186;19.958;2022-07-17T03:08:12;6.00;;;2.50;;
56481;SDS011;42384;45.186;19.958;2022-07-17T03:10:38;5.07;;;2.13;;
56481;SDS011;42384;45.186;19.958;2022-07-17T03:13:05;6.20;;;2.28;;
56481;SDS011;42384;45.186;19.958;2022-07-17T03:15:31;4.30;;;2.05;;
56481;SDS011;42384;45.186;19.958;2022-07-17T03:17:57;3.85;;;1.88;;
56481;SDS011;42384;45.186;19.958;2022-07-17T03:20:23;5.57;;;2.08;;
56481;SDS011;42384;45.186;19.958;2022-07-17T03:22:50;3.60;;;2.05;;
56481;SDS011;42384;45.186;19.958;2022-07-17T03:25:16;6.00;;;2.58;;
56481;SDS011;42384;45.186;19.958;2022-07-17T03:27:42;3.72;;;2.10;;
56481;SDS011;42384;45.186;19.958;2022-07-17T03:30:08;5.53;;;2.00;;
56481;SDS011;42384;45.186;19.958;2022-07-17T03:32:34;5.10;;;2.17;;
56481;SDS011;42384;45.186;19.958;2022-07-17T03:35:00;5.18;;;1.95;;
56481;SDS011;42384;45.186;19.958;2022-07-17T03:37:28;4.85;;;1.98;;
56481;SDS011;42384;45.186;19.958;2022-07-17T03:39:54;3.08;;;2.03;;
56481;SDS011;42384;45.186;19.958;2022-07-17T03:42:20;4.65;;;1.60;;
56481;SDS011;42384;45.186;19.958;2022-07-17T03:44:46;3.13;;;1.73;;
56481;SDS011;42384;45.186;19.958;2022-07-17T03:47:12;8.52;;;2.00;;
56481;SDS011;42384;45.186;19.958;2022-07-17T03:49:39;5.05;;;1.85;;
56481;SDS011;42384;45.186;19.958;2022-07-17T03:52:05;4.75;;;1.75;;
56481;SDS011;42384;45.186;19.958;2022-07-17T03:54:31;5.00;;;1.95;;
56481;SDS011;42384;45.186;19.958;2022-07-17T03:56:57;9.95;;;2.05;;
56481;SDS011;42384;45.186;19.958;2022-07-17T03:59:24;4.57;;;1.75;;
56481;SDS011;42384;45.186;19.958;2022-07-17T04:01:50;4.70;;;1.98;;
56481;SDS011;42384;45.186;19.958;2022-07-17T04:04:16;6.93;;;2.17;;
56481;SDS011;42384;45.186;19.958;2022-07-17T04:06:42;2.95;;;1.70;;
56481;SDS011;42384;45.186;19.958;2022-07-17T04:09:08;7.60;;;1.90;;
56481;SDS011;42384;45.186;19.958;2022-07-17T04:11:34;5.40;;;1.65;;
56481;SDS011;42384;45.186;19.958;2022-07-17T04:14:01;5.20;;;1.60;;
56481;SDS011;42384;45.186;19.958;2022-07-17T04:16:27;4.70;;;1.83;;
56481;SDS011;42384;45.186;19.958;2022-07-17T04:18:53;5.10;;;1.77;;
56481;SDS011;42384;45.186;19.958;2022-07-17T04:21:19;5.13;;;2.33;;
56481;SDS011;42384;45.186;19.958;2022-07-17T04:23:45;2.55;;;1.42;;
56481;SDS011;42384;45.186;19.958;2022-07-17T04:26:11;3.80;;;1.95;;
56481;SDS011;42384;45.186;19.958;2022-07-17T04:28:38;6.00;;;2.08;;
56481;SDS011;42384;45.186;19.958;2022-07-17T04:31:04;5.80;;;1.77;;
56481;SDS011;42384;45.186;19.958;2022-07-17T04:33:31;4.60;;;1.90;;
56481;SDS011;42384;45.186;19.958;2022-07-17T04:35:57;4.30;;;1.95;;
56481;SDS011;42384;45.186;19.958;2022-07-17T04:38:23;6.43;;;1.88;;
56481;SDS011;42384;45.186;19.958;2022-07-17T04:40:49;4.10;;;1.65;;
56481;SDS011;42384;45.186;19.958;2022-07-17T04:43:15;3.25;;;1.73;;
56481;SDS011;42384;45.186;19.958;2022-07-17T04:45:41;5.88;;;1.73;;
56481;SDS011;42384;45.186;19.958;2022-07-17T04:48:08;12.52;;;1.85;;
56481;SDS011;42384;45.186;19.958;2022-07-17T04:50:34;3.45;;;1.52;;
56481;SDS011;42384;45.186;19.958;2022-07-17T04:53:00;5.63;;;1.48;;
56481;SDS011;42384;45.186;19.958;2022-07-17T04:55:27;4.75;;;1.85;;
56481;SDS011;42384;45.186;19.958;2022-07-17T05:00:19;6.80;;;2.15;;
56481;SDS011;42384;45.186;19.958;2022-07-17T05:02:45;6.20;;;1.95;;
56481;SDS011;42384;45.186;19.958;2022-07-17T05:05:11;4.40;;;1.70;;
56481;SDS011;42384;45.186;19.958;2022-07-17T05:07:38;2.03;;;1.45;;
56481;SDS011;42384;45.186;19.958;2022-07-17T05:10:04;4.45;;;1.40;;
56481;SDS011;42384;45.186;19.958;2022-07-17T05:14:56;3.90;;;1.50;;
56481;SDS011;42384;45.186;19.958;2022-07-17T05:17:24;6.57;;;2.00;;
56481;SDS011;42384;45.186;19.958;2022-07-17T05:22:16;5.15;;;1.60;;
56481;SDS011;42384;45.186;19.958;2022-07-17T05:24:42;5.07;;;1.88;;
56481;SDS011;42384;45.186;19.958;2022-07-17T05:27:08;8.05;;;1.83;;
56481;SDS011;42384;45.186;19.958;2022-07-17T05:29:35;4.13;;;1.65;;
56481;SDS011;42384;45.186;19.958;2022-07-17T05:32:01;4.22;;;1.60;;
56481;SDS011;42384;45.186;19.958;2022-07-17T05:34:27;3.05;;;1.67;;
56481;SDS011;42384;45.186;19.958;2022-07-17T05:36:53;5.35;;;1.88;;
56481;SDS011;42384;45.186;19.958;2022-07-17T05:39:19;4.03;;;1.67;;
56481;SDS011;42384;45.186;19.958;2022-07-17T05:41:45;5.88;;;2.10;;
56481;SDS011;42384;45.186;19.958;2022-07-17T05:44:12;8.60;;;1.40;;
56481;SDS011;42384;45.186;19.958;2022-07-17T05:46:38;3.20;;;1.52;;
56481;SDS011;42384;45.186;19.958;2022-07-17T05:49:04;3.35;;;1.70;;
56481;SDS011;42384;45.186;19.958;2022-07-17T05:51:30;4.72;;;1.52;;
56481;SDS011;42384;45.186;19.958;2022-07-17T05:53:56;4.38;;;1.55;;
56481;SDS011;42384;45.186;19.958;2022-07-17T05:56:22;5.05;;;1.58;;
56481;SDS011;42384;45.186;19.958;2022-07-17T05:58:49;6.00;;;1.48;;
56481;SDS011;42384;45.186;19.958;2022-07-17T06:01:15;6.38;;;1.40;;
56481;SDS011;42384;45.186;19.958;2022-07-17T06:03:41;4.43;;;1.60;;
56481;SDS011;42384;45.186;19.958;2022-07-17T06:06:08;3.45;;;1.50;;
56481;SDS011;42384;45.186;19.958;2022-07-17T06:08:34;6.53;;;1.67;;
56481;SDS011;42384;45.186;19.958;2022-07-17T06:11:00;6.95;;;1.67;;
56481;SDS011;42384;45.186;19.958;2022-07-17T06:13:26;7.10;;;1.45;;
56481;SDS011;42384;45.186;19.958;2022-07-17T06:18:18;2.92;;;1.75;;
56481;SDS011;42384;45.186;19.958;2022-07-17T06:20:44;3.67;;;1.27;;
56481;SDS011;42384;45.186;19.958;2022-07-17T06:23:11;6.68;;;1.45;;
56481;SDS011;42384;45.186;19.958;2022-07-17T06:25:37;6.88;;;1.35;;
56481;SDS011;42384;45.186;19.958;2022-07-17T06:28:03;7.20;;;1.63;;
56481;SDS011;42384;45.186;19.958;2022-07-17T06:30:30;8.63;;;1.85;;
56481;SDS011;42384;45.186;19.958;2022-07-17T06:32:56;4.00;;;1.40;;
56481;SDS011;42384;45.186;19.958;2022-07-17T06:35:22;6.15;;;1.40;;
56481;SDS011;42384;45.186;19.958;2022-07-17T06:37:48;4.35;;;1.23;;
56481;SDS011;42384;45.186;19.958;2022-07-17T06:40:15;4.22;;;1.27;;
56481;SDS011;42384;45.186;19.958;2022-07-17T06:42:41;3.08;;;0.90;;
56481;SDS011;42384;45.186;19.958;2022-07-17T06:47:33;6.13;;;1.65;;
56481;SDS011;42384;45.186;19.958;2022-07-17T06:49:59;9.73;;;1.52;;
56481;SDS011;42384;45.186;19.958;2022-07-17T06:52:26;4.43;;;1.63;;
56481;SDS011;42384;45.186;19.958;2022-07-17T06:54:52;6.10;;;1.40;;
56481;SDS011;42384;45.186;19.958;2022-07-17T06:57:18;4.82;;;1.20;;
56481;SDS011;42384;45.186;19.958;2022-07-17T06:59:44;5.13;;;1.45;;
56481;SDS011;42384;45.186;19.958;2022-07-17T07:02:10;3.55;;;1.52;;
56481;SDS011;42384;45.186;19.958;2022-07-17T07:04:36;4.85;;;1.60;;
56481;SDS011;42384;45.186;19.958;2022-07-17T07:07:03;2.80;;;1.13;;
56481;SDS011;42384;45.186;19.958;2022-07-17T07:09:29;3.50;;;1.48;;
56481;SDS011;42384;45.186;19.958;2022-07-17T07:11:55;3.03;;;1.27;;
56481;SDS011;42384;45.186;19.958;2022-07-17T07:14:21;4.13;;;1.50;;
56481;SDS011;42384;45.186;19.958;2022-07-17T07:16:47;3.30;;;1.38;;
56481;SDS011;42384;45.186;19.958;2022-07-17T07:19:13;4.00;;;1.33;;
56481;SDS011;42384;45.186;19.958;2022-07-17T07:21:40;4.10;;;1.38;;
56481;SDS011;42384;45.186;19.958;2022-07-17T07:24:06;6.57;;;1.30;;
56481;SDS011;42384;45.186;19.958;2022-07-17T07:26:32;4.57;;;1.45;;
56481;SDS011;42384;45.186;19.958;2022-07-17T07:28:58;3.67;;;1.33;;
56481;SDS011;42384;45.186;19.958;2022-07-17T07:31:24;3.95;;;1.30;;
56481;SDS011;42384;45.186;19.958;2022-07-17T07:33:50;4.47;;;0.95;;
56481;SDS011;42384;45.186;19.958;2022-07-17T07:36:17;2.75;;;1.05;;
56481;SDS011;42384;45.186;19.958;2022-07-17T07:38:43;3.15;;;1.00;;
56481;SDS011;42384;45.186;19.958;2022-07-17T07:41:11;7.25;;;1.30;;
56481;SDS011;42384;45.186;19.958;2022-07-17T07:43:37;7.72;;;1.33;;
56481;SDS011;42384;45.186;19.958;2022-07-17T07:46:03;8.13;;;1.08;;
56481;SDS011;42384;45.186;19.958;2022-07-17T07:50:56;6.47;;;1.60;;
56481;SDS011;42384;45.186;19.958;2022-07-17T07:53:22;7.78;;;1.20;;
56481;SDS011;42384;45.186;19.958;2022-07-17T07:55:48;5.25;;;1.48;;
56481;SDS011;42384;45.186;19.958;2022-07-17T07:58:14;3.47;;;1.08;;
56481;SDS011;42384;45.186;19.958;2022-07-17T08:00:42;3.50;;;0.90;;
56481;SDS011;42384;45.186;19.958;2022-07-17T08:03:09;4.88;;;0.93;;
56481;SDS011;42384;45.186;19.958;2022-07-17T08:05:35;2.65;;;0.90;;
56481;SDS011;42384;45.186;19.958;2022-07-17T08:08:01;2.55;;;1.00;;
56481;SDS011;42384;45.186;19.958;2022-07-17T08:10:27;2.00;;;0.93;;
56481;SDS011;42384;45.186;19.958;2022-07-17T08:15:20;3.38;;;1.30;;
56481;SDS011;42384;45.186;19.958;2022-07-17T08:17:47;4.50;;;1.25;;
56481;SDS011;42384;45.186;19.958;2022-07-17T08:20:14;6.82;;;1.25;;
56481;SDS011;42384;45.186;19.958;2022-07-17T08:22:44;5.07;;;1.25;;
56481;SDS011;42384;45.186;19.958;2022-07-17T08:25:10;4.70;;;1.17;;
56481;SDS011;42384;45.186;19.958;2022-07-17T08:27:40;4.72;;;1.08;;
56481;SDS011;42384;45.186;19.958;2022-07-17T08:30:07;4.20;;;0.95;;
56481;SDS011;42384;45.186;19.958;2022-07-17T08:32:33;4.95;;;1.00;;
56481;SDS011;42384;45.186;19.958;2022-07-17T08:34:59;5.82;;;1.33;;
56481;SDS011;42384;45.186;19.958;2022-07-17T08:37:25;6.82;;;1.15;;
56481;SDS011;42384;45.186;19.958;2022-07-17T08:39:52;3.92;;;1.23;;
56481;SDS011;42384;45.186;19.958;2022-07-17T08:42:18;3.00;;;1.20;;
56481;SDS011;42384;45.186;19.958;2022-07-17T08:44:44;2.97;;;1.02;;
56481;SDS011;42384;45.186;19.958;2022-07-17T08:47:11;5.15;;;1.75;;
56481;SDS011;42384;45.186;19.958;2022-07-17T08:49:41;5.20;;;1.38;;
56481;SDS011;42384;45.186;19.958;2022-07-17T08:52:09;5.82;;;1.25;;
56481;SDS011;42384;45.186;19.958;2022-07-17T08:54:35;5.28;;;1.67;;
56481;SDS011;42384;45.186;19.958;2022-07-17T08:59:28;2.92;;;1.10;;
56481;SDS011;42384;45.186;19.958;2022-07-17T09:04:20;4.47;;;1.20;;
56481;SDS011;42384;45.186;19.958;2022-07-17T09:06:46;4.28;;;1.15;;
56481;SDS011;42384;45.186;19.958;2022-07-17T09:09:13;1.85;;;0.88;;
56481;SDS011;42384;45.186;19.958;2022-07-17T09:11:46;4.35;;;1.27;;
56481;SDS011;42384;45.186;19.958;2022-07-17T09:14:13;3.67;;;1.33;;
56481;SDS011;42384;45.186;19.958;2022-07-17T09:19:06;6.30;;;2.92;;
56481;SDS011;42384;45.186;19.958;2022-07-17T09:21:32;2.03;;;1.00;;
56481;SDS011;42384;45.186;19.958;2022-07-17T09:23:59;5.20;;;1.00;;
56481;SDS011;42384;45.186;19.958;2022-07-17T09:26:26;6.15;;;2.58;;
56481;SDS011;42384;45.186;19.958;2022-07-17T09:28:52;3.70;;;0.80;;
56481;SDS011;42384;45.186;19.958;2022-07-17T09:31:28;4.57;;;1.13;;
56481;SDS011;42384;45.186;19.958;2022-07-17T09:33:55;2.45;;;1.05;;
56481;SDS011;42384;45.186;19.958;2022-07-17T09:38:48;2.08;;;0.93;;
56481;SDS011;42384;45.186;19.958;2022-07-17T09:41:15;1.77;;;0.80;;
56481;SDS011;42384;45.186;19.958;2022-07-17T09:46:15;5.63;;;0.90;;
56481;SDS011;42384;45.186;19.958;2022-07-17T09:48:43;2.30;;;1.20;;
56481;SDS011;42384;45.186;19.958;2022-07-17T09:51:23;4.35;;;1.00;;
56481;SDS011;42384;45.186;19.958;2022-07-17T09:53:51;3.17;;;1.27;;
56481;SDS011;42384;45.186;19.958;2022-07-17T09:56:18;2.55;;;0.80;;
56481;SDS011;42384;45.186;19.958;2022-07-17T09:58:47;1.90;;;0.80;;
56481;SDS011;42384;45.186;19.958;2022-07-17T10:01:14;3.10;;;1.40;;
56481;SDS011;42384;45.186;19.958;2022-07-17T10:03:41;6.45;;;1.20;;
56481;SDS011;42384;45.186;19.958;2022-07-17T10:06:09;3.03;;;0.90;;
56481;SDS011;42384;45.186;19.958;2022-07-17T10:08:35;4.38;;;1.30;;
56481;SDS011;42384;45.186;19.958;2022-07-17T10:11:03;3.15;;;0.80;;
56481;SDS011;42384;45.186;19.958;2022-07-17T10:13:29;2.63;;;0.70;;
56481;SDS011;42384;45.186;19.958;2022-07-17T10:15:56;3.85;;;0.98;;
56481;SDS011;42384;45.186;19.958;2022-07-17T10:18:33;2.45;;;0.88;;
56481;SDS011;42384;45.186;19.958;2022-07-17T10:21:11;2.92;;;1.17;;
56481;SDS011;42384;45.186;19.958;2022-07-17T10:23:39;2.17;;;1.00;;
56481;SDS011;42384;45.186;19.958;2022-07-17T10:26:06;4.57;;;1.00;;
56481;SDS011;42384;45.186;19.958;2022-07-17T10:28:46;5.78;;;1.13;;
56481;SDS011;42384;45.186;19.958;2022-07-17T10:31:22;2.60;;;0.98;;
56481;SDS011;42384;45.186;19.958;2022-07-17T10:34:05;2.20;;;1.00;;
56481;SDS011;42384;45.186;19.958;2022-07-17T10:36:41;2.85;;;1.08;;
56481;SDS011;42384;45.186;19.958;2022-07-17T10:39:25;2.17;;;0.93;;
56481;SDS011;42384;45.186;19.958;2022-07-17T10:41:58;2.08;;;0.90;;
56481;SDS011;42384;45.186;19.958;2022-07-17T10:44:25;1.42;;;0.70;;
56481;SDS011;42384;45.186;19.958;2022-07-17T10:46:52;6.10;;;1.02;;
56481;SDS011;42384;45.186;19.958;2022-07-17T10:49:18;2.75;;;0.80;;
56481;SDS011;42384;45.186;19.958;2022-07-17T10:51:45;6.53;;;1.02;;
56481;SDS011;42384;45.186;19.958;2022-07-17T10:54:12;2.35;;;0.80;;
56481;SDS011;42384;45.186;19.958;2022-07-17T10:56:39;4.47;;;0.70;;
56481;SDS011;42384;45.186;19.958;2022-07-17T10:59:05;2.47;;;0.50;;
56481;SDS011;42384;45.186;19.958;2022-07-17T11:03:59;2.58;;;1.08;;
56481;SDS011;42384;45.186;19.958;2022-07-17T11:06:26;3.88;;;1.10;;
56481;SDS011;42384;45.186;19.958;2022-07-17T11:11:41;7.47;;;1.00;;
56481;SDS011;42384;45.186;19.958;2022-07-17T11:14:15;2.75;;;0.90;;
56481;SDS011;42384;45.186;19.958;2022-07-17T11:16:55;4.38;;;1.00;;
56481;SDS011;42384;45.186;19.958;2022-07-17T11:19:27;1.90;;;0.95;;
56481;SDS011;42384;45.186;19.958;2022-07-17T11:21:57;3.47;;;1.05;;
56481;SDS011;42384;45.186;19.958;2022-07-17T11:24:24;3.60;;;0.93;;
56481;SDS011;42384;45.186;19.958;2022-07-17T11:26:51;4.53;;;0.90;;
56481;SDS011;42384;45.186;19.958;2022-07-17T11:29:18;5.47;;;1.10;;
56481;SDS011;42384;45.186;19.958;2022-07-17T11:31:45;5.00;;;1.30;;
56481;SDS011;42384;45.186;19.958;2022-07-17T11:34:11;2.40;;;0.73;;
56481;SDS011;42384;45.186;19.958;2022-07-17T11:36:39;1.42;;;0.98;;
56481;SDS011;42384;45.186;19.958;2022-07-17T11:39:10;1.88;;;1.00;;
56481;SDS011;42384;45.186;19.958;2022-07-17T11:41:44;2.40;;;1.05;;
56481;SDS011;42384;45.186;19.958;2022-07-17T11:44:12;4.05;;;0.75;;
56481;SDS011;42384;45.186;19.958;2022-07-17T11:46:40;5.05;;;1.10;;
56481;SDS011;42384;45.186;19.958;2022-07-17T11:49:06;2.15;;;0.80;;
56481;SDS011;42384;45.186;19.958;2022-07-17T11:51:43;3.20;;;0.90;;
56481;SDS011;42384;45.186;19.958;2022-07-17T11:56:35;1.10;;;0.70;;
56481;SDS011;42384;45.186;19.958;2022-07-17T11:59:02;1.63;;;0.80;;
56481;SDS011;42384;45.186;19.958;2022-07-17T12:01:29;3.95;;;1.13;;
56481;SDS011;42384;45.186;19.958;2022-07-17T12:04:03;3.45;;;1.33;;
56481;SDS011;42384;45.186;19.958;2022-07-17T12:06:29;4.03;;;0.90;;
56481;SDS011;42384;45.186;19.958;2022-07-17T12:08:55;14.85;;;1.35;;
56481;SDS011;42384;45.186;19.958;2022-07-17T12:11:22;5.20;;;1.25;;
56481;SDS011;42384;45.186;19.958;2022-07-17T12:16:23;3.28;;;1.08;;
56481;SDS011;42384;45.186;19.958;2022-07-17T12:18:56;4.85;;;1.17;;
56481;SDS011;42384;45.186;19.958;2022-07-17T12:21:22;2.35;;;1.10;;
56481;SDS011;42384;45.186;19.958;2022-07-17T12:24:04;2.35;;;0.80;;
56481;SDS011;42384;45.186;19.958;2022-07-17T12:26:31;2.20;;;1.05;;
56481;SDS011;42384;45.186;19.958;2022-07-17T12:28:58;6.25;;;1.15;;
56481;SDS011;42384;45.186;19.958;2022-07-17T12:31:25;2.13;;;0.80;;
56481;SDS011;42384;45.186;19.958;2022-07-17T12:36:17;4.68;;;1.30;;
56481;SDS011;42384;45.186;19.958;2022-07-17T12:41:10;1.33;;;0.90;;
56481;SDS011;42384;45.186;19.958;2022-07-17T12:43:36;2.15;;;0.93;;
56481;SDS011;42384;45.186;19.958;2022-07-17T12:46:03;3.83;;;0.90;;
56481;SDS011;42384;45.186;19.958;2022-07-17T12:48:29;4.85;;;0.95;;
56481;SDS011;42384;45.186;19.958;2022-07-17T12:50:55;4.53;;;0.90;;
56481;SDS011;42384;45.186;19.958;2022-07-17T12:53:21;5.25;;;1.00;;
56481;SDS011;42384;45.186;19.958;2022-07-17T12:55:48;4.90;;;0.90;;
56481;SDS011;42384;45.186;19.958;2022-07-17T12:58:14;6.25;;;1.00;;
56481;SDS011;42384;45.186;19.958;2022-07-17T13:00:40;5.63;;;1.25;;
56481;SDS011;42384;45.186;19.958;2022-07-17T13:03:06;4.93;;;0.90;;
56481;SDS011;42384;45.186;19.958;2022-07-17T13:05:32;5.65;;;1.52;;
56481;SDS011;42384;45.186;19.958;2022-07-17T13:07:58;5.53;;;0.80;;
56481;SDS011;42384;45.186;19.958;2022-07-17T13:10:25;4.13;;;0.80;;
56481;SDS011;42384;45.186;19.958;2022-07-17T13:12:51;1.15;;;0.68;;
56481;SDS011;42384;45.186;19.958;2022-07-17T13:15:17;3.08;;;0.73;;
56481;SDS011;42384;45.186;19.958;2022-07-17T13:17:43;2.08;;;0.63;;
56481;SDS011;42384;45.186;19.958;2022-07-17T13:20:09;4.30;;;0.70;;
56481;SDS011;42384;45.186;19.958;2022-07-17T13:22:36;3.15;;;0.80;;
56481;SDS011;42384;45.186;19.958;2022-07-17T13:25:02;1.38;;;0.68;;
56481;SDS011;42384;45.186;19.958;2022-07-17T13:29:54;3.80;;;1.23;;
56481;SDS011;42384;45.186;19.958;2022-07-17T13:32:20;1.15;;;0.50;;
56481;SDS011;42384;45.186;19.958;2022-07-17T13:34:46;0.68;;;0.50;;
56481;SDS011;42384;45.186;19.958;2022-07-17T13:37:14;2.97;;;0.63;;
56481;SDS011;42384;45.186;19.958;2022-07-17T13:39:40;2.33;;;0.60;;
56481;SDS011;42384;45.186;19.958;2022-07-17T13:42:07;1.95;;;0.70;;
56481;SDS011;42384;45.186;19.958;2022-07-17T13:44:33;1.77;;;0.95;;
56481;SDS011;42384;45.186;19.958;2022-07-17T13:46:59;3.65;;;0.73;;
56481;SDS011;42384;45.186;19.958;2022-07-17T13:49:25;2.53;;;0.60;;
56481;SDS011;42384;45.186;19.958;2022-07-17T13:51:52;1.13;;;0.47;;
56481;SDS011;42384;45.186;19.958;2022-07-17T13:54:19;1.15;;;0.50;;
56481;SDS011;42384;45.186;19.958;2022-07-17T13:59:11;1.92;;;0.70;;
56481;SDS011;42384;45.186;19.958;2022-07-17T14:01:37;1.90;;;0.60;;
56481;SDS011;42384;45.186;19.958;2022-07-17T14:04:03;1.83;;;0.47;;
56481;SDS011;42384;45.186;19.958;2022-07-17T14:06:30;1.85;;;0.50;;
56481;SDS011;42384;45.186;19.958;2022-07-17T14:08:56;0.93;;;0.40;;
56481;SDS011;42384;45.186;19.958;2022-07-17T14:11:22;4.88;;;0.90;;
56481;SDS011;42384;45.186;19.958;2022-07-17T14:13:48;2.33;;;0.63;;
56481;SDS011;42384;45.186;19.958;2022-07-17T14:16:16;1.08;;;0.70;;
56481;SDS011;42384;45.186;19.958;2022-07-17T14:18:42;3.03;;;0.70;;
56481;SDS011;42384;45.186;19.958;2022-07-17T14:21:28;3.38;;;0.50;;
56481;SDS011;42384;45.186;19.958;2022-07-17T14:23:54;1.33;;;0.50;;
56481;SDS011;42384;45.186;19.958;2022-07-17T14:26:20;2.03;;;0.50;;
56481;SDS011;42384;45.186;19.958;2022-07-17T14:28:46;1.42;;;0.52;;
56481;SDS011;42384;45.186;19.958;2022-07-17T14:31:13;2.90;;;0.60;;
56481;SDS011;42384;45.186;19.958;2022-07-17T14:33:39;2.92;;;0.60;;
56481;SDS011;42384;45.186;19.958;2022-07-17T14:36:05;3.90;;;0.73;;
56481;SDS011;42384;45.186;19.958;2022-07-17T14:40:57;2.78;;;0.73;;
56481;SDS011;42384;45.186;19.958;2022-07-17T14:43:23;1.85;;;0.50;;
56481;SDS011;42384;45.186;19.958;2022-07-17T14:45:50;1.85;;;0.70;;
56481;SDS011;42384;45.186;19.958;2022-07-17T14:48:16;4.43;;;0.70;;
56481;SDS011;42384;45.186;19.958;2022-07-17T14:50:42;2.90;;;0.70;;
56481;SDS011;42384;45.186;19.958;2022-07-17T14:53:08;6.28;;;0.82;;
56481;SDS011;42384;45.186;19.958;2022-07-17T14:55:34;8.27;;;0.63;;
56481;SDS011;42384;45.186;19.958;2022-07-17T14:58:00;3.85;;;0.80;;
56481;SDS011;42384;45.186;19.958;2022-07-17T15:02:53;2.75;;;0.75;;
56481;SDS011;42384;45.186;19.958;2022-07-17T15:05:19;3.83;;;0.50;;
56481;SDS011;42384;45.186;19.958;2022-07-17T15:07:45;1.95;;;0.60;;
56481;SDS011;42384;45.186;19.958;2022-07-17T15:10:12;3.17;;;0.85;;
56481;SDS011;42384;45.186;19.958;2022-07-17T15:12:38;2.15;;;0.50;;
56481;SDS011;42384;45.186;19.958;2022-07-17T15:15:04;3.22;;;0.57;;
56481;SDS011;42384;45.186;19.958;2022-07-17T15:19:57;1.55;;;0.57;;
56481;SDS011;42384;45.186;19.958;2022-07-17T15:22:24;2.08;;;0.40;;
56481;SDS011;42384;45.186;19.958;2022-07-17T15:24:50;0.98;;;0.50;;
56481;SDS011;42384;45.186;19.958;2022-07-17T15:27:16;3.00;;;0.80;;
56481;SDS011;42384;45.186;19.958;2022-07-17T15:29:42;4.32;;;0.73;;
56481;SDS011;42384;45.186;19.958;2022-07-17T15:32:08;4.43;;;0.60;;
56481;SDS011;42384;45.186;19.958;2022-07-17T15:34:35;2.67;;;0.90;;
56481;SDS011;42384;45.186;19.958;2022-07-17T15:37:03;3.35;;;1.25;;
56481;SDS011;42384;45.186;19.958;2022-07-17T15:39:29;5.45;;;1.05;;
56481;SDS011;42384;45.186;19.958;2022-07-17T15:41:55;2.47;;;1.00;;